LiveATC.Net - Listen to live air traffic control over the Internet!


ICAO: KCVC  IATA: CVC   Airport: Covington Municipal Airport
City: Atlanta   State/Province: Georgia
Country: United States   Continent: North America
KCVC METAR Weather: KCVC 251915Z AUTO 30029G37KT 1 3/4SM TS SCT010 BKN029 OVC048 22/21 A3012 RMK AO2 LTG DSNT ALQS PNO
KCVC Flight Activity (FlightAware)
KCVC Airport Info   (iFlightPlanner)
KCVC VFR Sectional Chart   (iFlightPlanner) 
KCVC IFR Low Chart   (iFlightPlanner) 

KWDR/KCVC/KCNI CTAF
Feed Status: UP   Listeners: 0
Listen in your browser - HTML5 player (in browser, HTML5)
Click here to listen with your own player (launches your MP3 player)
Archive Access: KWDR/KCVC/KCNI CTAF
FacilityFrequency
KWDR/KCVC/KCNI CTAF123.000

NOTICE

Unauthorized use prohibited. See LiveATC.net Terms of Service


Airport/ARTCC Code
Frequency Search
(e.g., 124.400, 128.75)
Site-wide search
 


Browse Feeds
Top 50 Feeds
Coverage Map
Bad Weather Areas

LiveATC FAQ
Offer LiveATC feed
Contact LiveATC.net
Press Inquiries

LiveATC on iPhone
LiveATC on Android

Windows Phone
Windows 8/10

LiveATC Mobile
(Mobile browser)

ATC Audio Archives
Interesting Recordings

LiveATC Forums


Home Page
About LiveATC.net
Make a Donation
Terms of Use
Privacy Policy

Canadian Air Freqs

AIRMETs/SIGMETs

FAA Airport Status
Nat'l Airspace Status
Arrival Demand Charts


Server Software By:
Icecast.org
Liquidsoap